Language: 


Des rapports , des résumés tant et plus, au choix de chacun....


Données Historiques de Météogheer
Journalier Rapport pour Janvier 31, 2018 Unitée:  Les deux    Impériale   Métrique
Suivant Jour »
Journalier Hebdomadaire Mensuel Annuel Sur mesure
  Max: Min: Moyenne:
Température: 50.2 °F /  10.1 °C 35.2 °F /  1.8 °C 46 °F /  7.8 °C
Point de rosée: 50 °F /  10.0 °C 32 °F /  0.0 °C 45.1 °F /  7.3 °C
Humidité: 98% 81% 95%
Vent: 33.3mph /  53.6km/h - 11.1mph /  17.8km/h
Rafales: 33.3mph /  53.6km/h - -
Vent- - WSW
Pression: 30.1 in /  1018.2 hPa 29.6 in /  1000.9 hPa -
Pluie: 0.33 in /  8.4 mm    
Historical Graphs
 
 
Données tabulaires pour Janvier 31, 2018
Heure Température Point de rosée Pression Vent Vent Rafales Humidité Pluie Taux (Horaire) Conditions
00:00 48.7 °F /  9.3 °C 48.2 °F /  9.0 °C 30.1in /  1018.2hPa SSW 6mph /  9.7km/h 10.3mph /  16.6km/h 98% 0in /  0.0mm
00:05 48.7 °F /  9.3 °C 48.2 °F /  9.0 °C 30.1in /  1018.2hPa SW 5.6mph /  9.0km/h 10.3mph /  16.6km/h 98% 0in /  0.0mm
00:10 48.9 °F /  9.4 °C 48.2 °F /  9.0 °C 30.1in /  1018.2hPa SSW 7.8mph /  12.6km/h 8.7mph /  14.0km/h 98% 0in /  0.0mm
00:15 48.9 °F /  9.4 °C 48.2 °F /  9.0 °C 30in /  1016.8hPa SW 7.4mph /  11.9km/h 8.7mph /  14.0km/h 98% 0in /  0.0mm
00:20 48.9 °F /  9.4 °C 48.2 °F /  9.0 °C 30in /  1016.8hPa SW 7.6mph /  12.2km/h 10.1mph /  16.3km/h 98% 0in /  0.0mm
00:25 49.1 °F /  9.5 °C 50 °F /  10.0 °C 30in /  1016.8hPa SW 8.7mph /  14.0km/h 11mph /  17.7km/h 98% 0in /  0.0mm
00:30 49.3 °F /  9.6 °C 50 °F /  10.0 °C 30in /  1016.1hPa South 5.6mph /  9.0km/h 11mph /  17.7km/h 98% 0in /  0.0mm
00:35 49.3 °F /  9.6 °C 50 °F /  10.0 °C 30in /  1016.1hPa SSW 6.3mph /  10.1km/h 11mph /  17.7km/h 98% 0in /  0.0mm
00:40 49.5 °F /  9.7 °C 50 °F /  10.0 °C 30in /  1016.1hPa WSW 8.7mph /  14.0km/h 12.5mph /  20.1km/h 98% 0in /  0.0mm
00:45 49.6 °F /  9.8 °C 50 °F /  10.0 °C 30in /  1016.8hPa WSW 8.1mph /  13.0km/h 13mph /  20.9km/h 98% 0in /  0.0mm
00:50 49.6 °F /  9.8 °C 50 °F /  10.0 °C 30in /  1016.8hPa SW 9.8mph /  15.8km/h 13mph /  20.9km/h 98% 0in /  0.0mm
00:56 49.8 °F /  9.9 °C 50 °F /  10.0 °C 30in /  1016.8hPa SW 12.5mph /  20.1km/h 13mph /  20.9km/h 98% 0in /  0.0mm
01:01 49.8 °F /  9.9 °C 50 °F /  10.0 °C 30in /  1016.8hPa SW 10.5mph /  16.9km/h 14.5mph /  23.3km/h 98% 0in /  0.0mm
01:06 50 °F /  10.0 °C 50 °F /  10.0 °C 30in /  1016.8hPa WSW 10.3mph /  16.6km/h 15.7mph /  25.3km/h 98% 0in /  0.0mm
01:11 50 °F /  10.0 °C 50 °F /  10.0 °C 30in /  1016.8hPa WSW 9.2mph /  14.8km/h 15.7mph /  25.3km/h 98% 0in /  0.0mm
01:16 50 °F /  10.0 °C 50 °F /  10.0 °C 30in /  1016.1hPa SW 12.5mph /  20.1km/h 14.3mph /  23.0km/h 98% 0in /  0.0mm
01:21 50 °F /  10.0 °C 50 °F /  10.0 °C 30in /  1016.1hPa SW 10.3mph /  16.6km/h 14.3mph /  23.0km/h 98% 0in /  0.0mm
01:26 50 °F /  10.0 °C 50 °F /  10.0 °C 30in /  1016.1hPa WSW 11mph /  17.7km/h 14.1mph /  22.7km/h 98% 0in /  0.0mm
01:31 50 °F /  10.0 °C 50 °F /  10.0 °C 30in /  1016.1hPa WSW 13.4mph /  21.6km/h 16.1mph /  25.9km/h 98% 0in /  0.0mm
01:36 50 °F /  10.0 °C 50 °F /  10.0 °C 30in /  1016.1hPa WSW 13mph /  20.9km/h 16.1mph /  25.9km/h 98% 0in /  0.0mm
01:41 50 °F /  10.0 °C 50 °F /  10.0 °C 30in /  1016.1hPa WSW 8.7mph /  14.0km/h 14.3mph /  23.0km/h 98% 0in /  0.0mm
01:46 50 °F /  10.0 °C 50 °F /  10.0 °C 30in /  1015.1hPa WSW 7.6mph /  12.2km/h 14.8mph /  23.8km/h 98% 0in /  0.0mm
01:51 50.2 °F /  10.1 °C 50 °F /  10.0 °C 30in /  1015.1hPa WSW 11.2mph /  18.0km/h 16.8mph /  27.0km/h 98% 0in /  0.0mm
01:56 50.2 °F /  10.1 °C 50 °F /  10.0 °C 30in /  1015.1hPa WSW 13mph /  20.9km/h 16.8mph /  27.0km/h 98% 0in /  0.0mm
02:01 50.2 °F /  10.1 °C 50 °F /  10.0 °C 29.9in /  1014.1hPa WSW 8.1mph /  13.0km/h 15.4mph /  24.8km/h 98% 0in /  0.0mm
02:06 50.2 °F /  10.1 °C 50 °F /  10.0 °C 29.9in /  1014.1hPa WSW 12.3mph /  19.8km/h 15.4mph /  24.8km/h 98% 0.01in /  0.3mm
02:11 50.2 °F /  10.1 °C 50 °F /  10.0 °C 29.9in /  1014.1hPa WSW 10.5mph /  16.9km/h 17mph /  27.4km/h 98% 0.01in /  0.3mm
02:16 50.2 °F /  10.1 °C 50 °F /  10.0 °C 30in /  1015.1hPa WSW 10.3mph /  16.6km/h 17.4mph /  28.0km/h 98% 0.01in /  0.3mm
02:21 50.2 °F /  10.1 °C 50 °F /  10.0 °C 30in /  1015.1hPa SSW 12.3mph /  19.8km/h 17.7mph /  28.5km/h 98% 0.01in /  0.3mm
02:26 50.2 °F /  10.1 °C 50 °F /  10.0 °C 30in /  1015.1hPa West 10.7mph /  17.2km/h 19.5mph /  31.4km/h 98% 0.01in /  0.3mm
02:31 50.2 °F /  10.1 °C 50 °F /  10.0 °C 30in /  1015.1hPa WSW 13.2mph /  21.2km/h 19.5mph /  31.4km/h 98% 0.01in /  0.3mm
02:36 50.2 °F /  10.1 °C 50 °F /  10.0 °C 30in /  1015.1hPa WSW 14.5mph /  23.3km/h 19.2mph /  30.9km/h 98% 0.01in /  0.3mm
02:41 50 °F /  10.0 °C 50 °F /  10.0 °C 30in /  1015.1hPa WSW 10.5mph /  16.9km/h 17.7mph /  28.5km/h 98% 0.01in /  0.3mm
02:46 50 °F /  10.0 °C 50 °F /  10.0 °C 30in /  1015.1hPa WSW 12.5mph /  20.1km/h 22.4mph /  36.0km/h 98% 0.01in /  0.3mm
02:51 50 °F /  10.0 °C 50 °F /  10.0 °C 30in /  1015.1hPa SW 12.8mph /  20.6km/h 22.4mph /  36.0km/h 98% 0.01in /  0.3mm
02:56 50 °F /  10.0 °C 50 °F /  10.0 °C 30in /  1015.1hPa WSW 10.7mph /  17.2km/h 19.5mph /  31.4km/h 98% 0.01in /  0.3mm
03:01 49.8 °F /  9.9 °C 50 °F /  10.0 °C 29.9in /  1014.1hPa WSW 10.3mph /  16.6km/h 17.4mph /  28.0km/h 98% 0.01in /  0.3mm
03:06 49.8 °F /  9.9 °C 50 °F /  10.0 °C 29.9in /  1014.1hPa WSW 12.5mph /  20.1km/h 17.4mph /  28.0km/h 98% 0in /  0.0mm
03:11 49.8 °F /  9.9 °C 50 °F /  10.0 °C 29.9in /  1014.1hPa SSW 12.3mph /  19.8km/h 19.7mph /  31.7km/h 98% 0in /  0.0mm
03:16 49.8 °F /  9.9 °C 50 °F /  10.0 °C 29.9in /  1014.1hPa WSW 19mph /  30.6km/h 19.7mph /  31.7km/h 98% 0in /  0.0mm
03:21 49.8 °F /  9.9 °C 50 °F /  10.0 °C 29.9in /  1014.1hPa WSW 12.3mph /  19.8km/h 19.5mph /  31.4km/h 98% 0in /  0.0mm
03:27 49.8 °F /  9.9 °C 50 °F /  10.0 °C 29.9in /  1014.1hPa WSW 17mph /  27.4km/h 19.5mph /  31.4km/h 98% 0in /  0.0mm
03:32 49.8 °F /  9.9 °C 50 °F /  10.0 °C 29.9in /  1013.1hPa SW 11mph /  17.7km/h 19.9mph /  32.0km/h 98% 0in /  0.0mm
03:37 49.8 °F /  9.9 °C 50 °F /  10.0 °C 29.9in /  1013.1hPa WSW 12.5mph /  20.1km/h 19.9mph /  32.0km/h 98% 0in /  0.0mm
03:42 49.8 °F /  9.9 °C 50 °F /  10.0 °C 29.9in /  1013.1hPa SW 13mph /  20.9km/h 17.4mph /  28.0km/h 98% 0.01in /  0.3mm
03:47 49.8 °F /  9.9 °C 50 °F /  10.0 °C 29.9in /  1013.1hPa WSW 9.4mph /  15.1km/h 16.3mph /  26.2km/h 98% 0.01in /  0.3mm
03:52 49.6 °F /  9.8 °C 50 °F /  10.0 °C 29.9in /  1013.1hPa SSW 14.3mph /  23.0km/h 15.4mph /  24.8km/h 98% 0.01in /  0.3mm
03:57 49.6 °F /  9.8 °C 50 °F /  10.0 °C 29.9in /  1013.1hPa WSW 14.8mph /  23.8km/h 19.7mph /  31.7km/h 98% 0.01in /  0.3mm
04:02 49.8 °F /  9.9 °C 50 °F /  10.0 °C 29.9in /  1013.1hPa SSW 13mph /  20.9km/h 19.9mph /  32.0km/h 98% 0.01in /  0.3mm
04:07 49.8 °F /  9.9 °C 50 °F /  10.0 °C 29.9in /  1013.1hPa WSW 10.1mph /  16.3km/h 22.8mph /  36.7km/h 98% 0.01in /  0.3mm
04:12 49.8 °F /  9.9 °C 50 °F /  10.0 °C 29.9in /  1013.1hPa SW 14.8mph /  23.8km/h 23mph /  37.0km/h 98% 0.01in /  0.3mm
04:17 49.8 °F /  9.9 °C 50 °F /  10.0 °C 29.9in /  1013.1hPa SSW 10.3mph /  16.6km/h 23mph /  37.0km/h 98% 0.01in /  0.3mm
04:22 49.8 °F /  9.9 °C 50 °F /  10.0 °C 29.9in /  1013.1hPa WSW 10.7mph /  17.2km/h 22.8mph /  36.7km/h 98% 0.01in /  0.3mm
04:27 49.8 °F /  9.9 °C 50 °F /  10.0 °C 29.9in /  1013.1hPa WSW 15.2mph /  24.5km/h 18.6mph /  29.9km/h 98% 0.01in /  0.3mm
04:32 49.8 °F /  9.9 °C 50 °F /  10.0 °C 29.9in /  1012.1hPa SW 12.5mph /  20.1km/h 18.6mph /  29.9km/h 98% 0.01in /  0.3mm
04:37 49.8 °F /  9.9 °C 50 °F /  10.0 °C 29.9in /  1012.1hPa WSW 10.3mph /  16.6km/h 21.9mph /  35.2km/h 98% 0in /  0.0mm
04:42 49.8 °F /  9.9 °C 50 °F /  10.0 °C 29.9in /  1012.1hPa SW 13mph /  20.9km/h 21.9mph /  35.2km/h 98% 0in /  0.0mm
04:47 49.8 °F /  9.9 °C 50 °F /  10.0 °C 29.9in /  1011.1hPa SSW 15.7mph /  25.3km/h 21.9mph /  35.2km/h 98% 0in /  0.0mm
04:52 49.8 °F /  9.9 °C 50 °F /  10.0 °C 29.9in /  1011.1hPa SSW 18.8mph /  30.2km/h 24.2mph /  38.9km/h 98% 0in /  0.0mm
04:57 49.8 °F /  9.9 °C 50 °F /  10.0 °C 29.9in /  1011.1hPa SW 17mph /  27.4km/h 24.2mph /  38.9km/h 98% 0in /  0.0mm
05:02 49.8 °F /  9.9 °C 50 °F /  10.0 °C 29.9in /  1011.1hPa WSW 12.8mph /  20.6km/h 23.5mph /  37.8km/h 98% 0in /  0.0mm
05:07 49.8 °F /  9.9 °C 50 °F /  10.0 °C 29.9in /  1011.1hPa WSW 14.5mph /  23.3km/h 23.5mph /  37.8km/h 98% 0in /  0.0mm
05:12 49.8 °F /  9.9 °C 50 °F /  10.0 °C 29.9in /  1011.1hPa SW 12.8mph /  20.6km/h 21.9mph /  35.2km/h 98% 0in /  0.0mm
05:18 49.8 °F /  9.9 °C 50 °F /  10.0 °C 29.9in /  1011.1hPa WSW 10.7mph /  17.2km/h 21.9mph /  35.2km/h 98% 0in /  0.0mm
05:23 49.8 °F /  9.9 °C 50 °F /  10.0 °C 29.9in /  1011.1hPa SW 9.2mph /  14.8km/h 17.9mph /  28.8km/h 98% 0in /  0.0mm
05:28 49.8 °F /  9.9 °C 50 °F /  10.0 °C 29.9in /  1011.1hPa SSW 9.2mph /  14.8km/h 15.2mph /  24.5km/h 98% 0in /  0.0mm
05:33 49.8 °F /  9.9 °C 50 °F /  10.0 °C 29.9in /  1011.1hPa SSW 17.4mph /  28.0km/h 19.9mph /  32.0km/h 98% 0in /  0.0mm
05:38 49.8 °F /  9.9 °C 50 °F /  10.0 °C 29.9in /  1011.1hPa SW 10.1mph /  16.3km/h 19.9mph /  32.0km/h 98% 0in /  0.0mm
05:43 49.8 °F /  9.9 °C 50 °F /  10.0 °C 29.9in /  1011.1hPa SW 13.2mph /  21.2km/h 16.3mph /  26.2km/h 98% 0in /  0.0mm
05:48 49.8 °F /  9.9 °C 50 °F /  10.0 °C 29.9in /  1011.1hPa WSW 17.4mph /  28.0km/h 22.8mph /  36.7km/h 98% 0in /  0.0mm
05:53 49.8 °F /  9.9 °C 50 °F /  10.0 °C 29.9in /  1011.1hPa WSW 18.1mph /  29.1km/h 22.8mph /  36.7km/h 98% 0in /  0.0mm
05:58 49.8 °F /  9.9 °C 50 °F /  10.0 °C 29.9in /  1011.1hPa WSW 17.2mph /  27.7km/h 18.6mph /  29.9km/h 98% 0in /  0.0mm
06:03 49.8 °F /  9.9 °C 50 °F /  10.0 °C 29.9in /  1011.1hPa South 17.9mph /  28.8km/h 18.1mph /  29.1km/h 98% 0in /  0.0mm
06:08 49.8 °F /  9.9 °C 50 °F /  10.0 °C 29.9in /  1011.1hPa WSW 18.6mph /  29.9km/h 19.9mph /  32.0km/h 98% 0in /  0.0mm
06:13 49.6 °F /  9.8 °C 50 °F /  10.0 °C 29.9in /  1011.1hPa WSW 11mph /  17.7km/h 22.1mph /  35.6km/h 98% 0in /  0.0mm
06:18 49.6 °F /  9.8 °C 50 °F /  10.0 °C 29.8in /  1010.0hPa WSW 11mph /  17.7km/h 22.1mph /  35.6km/h 98% 0in /  0.0mm
06:23 49.6 °F /  9.8 °C 50 °F /  10.0 °C 29.8in /  1010.0hPa SW 15.4mph /  24.8km/h 22.6mph /  36.4km/h 98% 0in /  0.0mm
06:28 49.6 °F /  9.8 °C 50 °F /  10.0 °C 29.8in /  1010.0hPa WSW 13mph /  20.9km/h 22.6mph /  36.4km/h 98% 0in /  0.0mm
06:33 49.8 °F /  9.9 °C 50 °F /  10.0 °C 29.8in /  1010.0hPa SW 10.3mph /  16.6km/h 18.1mph /  29.1km/h 98% 0in /  0.0mm
06:38 49.8 °F /  9.9 °C 50 °F /  10.0 °C 29.8in /  1010.0hPa SW 13.2mph /  21.2km/h 24.4mph /  39.3km/h 98% 0in /  0.0mm
06:43 49.8 °F /  9.9 °C 50 °F /  10.0 °C 29.8in /  1010.0hPa SSW 12.5mph /  20.1km/h 24.4mph /  39.3km/h 98% 0in /  0.0mm
06:48 49.8 °F /  9.9 °C 50 °F /  10.0 °C 29.8in /  1010.0hPa SSW 19.2mph /  30.9km/h 20.4mph /  32.8km/h 98% 0in /  0.0mm
06:53 49.8 °F /  9.9 °C 50 °F /  10.0 °C 29.8in /  1010.0hPa WSW 13.2mph /  21.2km/h 19.7mph /  31.7km/h 98% 0in /  0.0mm
06:58 49.8 °F /  9.9 °C 50 °F /  10.0 °C 29.8in /  1010.0hPa WSW 12.5mph /  20.1km/h 17.7mph /  28.5km/h 98% 0.01in /  0.3mm
07:03 49.8 °F /  9.9 °C 50 °F /  10.0 °C 29.8in /  1010.0hPa SSW 14.3mph /  23.0km/h 17.7mph /  28.5km/h 98% 0.01in /  0.3mm
07:08 49.6 °F /  9.8 °C 50 °F /  10.0 °C 29.8in /  1010.0hPa WSW 15.2mph /  24.5km/h 17.4mph /  28.0km/h 98% 0.01in /  0.3mm
07:13 49.6 °F /  9.8 °C 50 °F /  10.0 °C 29.8in /  1010.0hPa SW 10.3mph /  16.6km/h 17.2mph /  27.7km/h 98% 0.01in /  0.3mm
07:18 49.6 °F /  9.8 °C 50 °F /  10.0 °C 29.8in /  1010.0hPa WSW 10.7mph /  17.2km/h 15.4mph /  24.8km/h 98% 0.01in /  0.3mm
07:23 49.6 °F /  9.8 °C 50 °F /  10.0 °C 29.8in /  1010.0hPa SSW 17.7mph /  28.5km/h 17.7mph /  28.5km/h 98% 0.01in /  0.3mm
07:29 49.6 °F /  9.8 °C 50 °F /  10.0 °C 29.8in /  1009.0hPa SW 18.1mph /  29.1km/h 18.1mph /  29.1km/h 98% 0.01in /  0.3mm
07:34 49.6 °F /  9.8 °C 50 °F /  10.0 °C 29.8in /  1009.0hPa SW 15.2mph /  24.5km/h 19.7mph /  31.7km/h 98% 0.01in /  0.3mm
07:39 49.6 °F /  9.8 °C 50 °F /  10.0 °C 29.8in /  1009.0hPa WSW 15.4mph /  24.8km/h 19.7mph /  31.7km/h 98% 0.01in /  0.3mm
07:44 49.6 °F /  9.8 °C 50 °F /  10.0 °C 29.8in /  1009.0hPa SSW 10.5mph /  16.9km/h 22.1mph /  35.6km/h 98% 0.01in /  0.3mm
07:49 49.6 °F /  9.8 °C 50 °F /  10.0 °C 29.8in /  1009.0hPa SW 10.1mph /  16.3km/h 22.1mph /  35.6km/h 98% 0.01in /  0.3mm
07:54 49.6 °F /  9.8 °C 50 °F /  10.0 °C 29.8in /  1009.0hPa WSW 12.3mph /  19.8km/h 19.5mph /  31.4km/h 98% 0in /  0.0mm
07:59 49.5 °F /  9.7 °C 50 °F /  10.0 °C 29.8in /  1008.0hPa WSW 13.4mph /  21.6km/h 17.2mph /  27.7km/h 98% 0in /  0.0mm
08:04 49.5 °F /  9.7 °C 50 °F /  10.0 °C 29.8in /  1008.0hPa WSW 12.3mph /  19.8km/h 17.7mph /  28.5km/h 98% 0in /  0.0mm
08:09 49.5 °F /  9.7 °C 50 °F /  10.0 °C 29.8in /  1008.0hPa SSW 14.8mph /  23.8km/h 17.7mph /  28.5km/h 98% 0in /  0.0mm
08:14 49.3 °F /  9.6 °C 50 °F /  10.0 °C 29.8in /  1008.0hPa WSW 12.5mph /  20.1km/h 17.7mph /  28.5km/h 98% 0in /  0.0mm
08:19 49.3 °F /  9.6 °C 50 °F /  10.0 °C 29.8in /  1009.0hPa SW 13mph /  20.9km/h 19.7mph /  31.7km/h 98% 0.01in /  0.3mm
08:24 49.3 °F /  9.6 °C 50 °F /  10.0 °C 29.8in /  1009.0hPa SW 12.8mph /  20.6km/h 19.7mph /  31.7km/h 98% 0.01in /  0.3mm
08:29 49.3 °F /  9.6 °C 50 °F /  10.0 °C 29.8in /  1009.0hPa WSW 13.2mph /  21.2km/h 19mph /  30.6km/h 98% 0.01in /  0.3mm
08:34 49.3 °F /  9.6 °C 50 °F /  10.0 °C 29.8in /  1009.0hPa SSW 14.3mph /  23.0km/h 15.4mph /  24.8km/h 98% 0.01in /  0.3mm
08:39 49.1 °F /  9.5 °C 50 °F /  10.0 °C 29.8in /  1009.0hPa SSW 7.8mph /  12.6km/h 14.8mph /  23.8km/h 98% 0.01in /  0.3mm
08:44 49.1 °F /  9.5 °C 50 °F /  10.0 °C 29.8in /  1009.0hPa WSW 12.1mph /  19.5km/h 19.5mph /  31.4km/h 98% 0.01in /  0.3mm
08:49 49.1 °F /  9.5 °C 50 °F /  10.0 °C 29.8in /  1009.0hPa SSW 9.4mph /  15.1km/h 19.5mph /  31.4km/h 98% 0.01in /  0.3mm
08:54 48.9 °F /  9.4 °C 48.2 °F /  9.0 °C 29.8in /  1009.0hPa SSW 17.4mph /  28.0km/h 17.4mph /  28.0km/h 98% 0.01in /  0.3mm
08:56 48.9 °F /  9.4 °C 48.2 °F /  9.0 °C 29.8in /  1009.0hPa WSW 10.3mph /  16.6km/h 17.4mph /  28.0km/h 98% 0.01in /  0.3mm
09:01 48.9 °F /  9.4 °C 48.2 °F /  9.0 °C 29.8in /  1008.0hPa SW 8.1mph /  13.0km/h 17.4mph /  28.0km/h 98% 0.01in /  0.3mm
09:06 48.9 °F /  9.4 °C 48.2 °F /  9.0 °C 29.8in /  1008.0hPa WSW 13.6mph /  21.9km/h 17.9mph /  28.8km/h 98% 0.01in /  0.3mm
09:11 48.9 °F /  9.4 °C 48.2 °F /  9.0 °C 29.8in /  1008.0hPa SSW 10.1mph /  16.3km/h 17.9mph /  28.8km/h 98% 0.01in /  0.3mm
09:16 48.9 °F /  9.4 °C 48.2 °F /  9.0 °C 29.8in /  1008.0hPa SW 12.3mph /  19.8km/h 14.8mph /  23.8km/h 98% 0.01in /  0.3mm
09:21 48.9 °F /  9.4 °C 48.2 °F /  9.0 °C 29.8in /  1008.0hPa SSW 10.7mph /  17.2km/h 14.8mph /  23.8km/h 98% 0in /  0.0mm
09:26 48.9 °F /  9.4 °C 48.2 °F /  9.0 °C 29.8in /  1008.0hPa WSW 8.5mph /  13.7km/h 14.5mph /  23.3km/h 98% 0in /  0.0mm
09:31 48.9 °F /  9.4 °C 48.2 °F /  9.0 °C 29.8in /  1008.0hPa SW 8.5mph /  13.7km/h 16.3mph /  26.2km/h 98% 0.01in /  0.3mm
09:36 48.9 °F /  9.4 °C 48.2 °F /  9.0 °C 29.8in /  1008.0hPa WSW 13.9mph /  22.4km/h 16.3mph /  26.2km/h 98% 0.01in /  0.3mm
09:41 48.9 °F /  9.4 °C 48.2 °F /  9.0 °C 29.8in /  1008.0hPa SW 13mph /  20.9km/h 15.4mph /  24.8km/h 98% 0.01in /  0.3mm
09:46 48.9 °F /  9.4 °C 48.2 °F /  9.0 °C 29.7in /  1007.0hPa WSW 13.6mph /  21.9km/h 14.5mph /  23.3km/h 98% 0.03in /  0.8mm
09:51 48.9 °F /  9.4 °C 48.2 °F /  9.0 °C 29.7in /  1007.0hPa WSW 17.2mph /  27.7km/h 17.2mph /  27.7km/h 98% 0.03in /  0.8mm
09:56 48.9 °F /  9.4 °C 48.2 °F /  9.0 °C 29.7in /  1007.0hPa WSW 13.4mph /  21.6km/h 30mph /  48.3km/h 98% 0.03in /  0.8mm
10:01 48.9 °F /  9.4 °C 48.2 °F /  9.0 °C 29.7in /  1007.0hPa SW 13.2mph /  21.2km/h 30mph /  48.3km/h 98% 0.03in /  0.8mm
10:07 48.9 °F /  9.4 °C 48.2 °F /  9.0 °C 29.7in /  1007.0hPa WNW 12.8mph /  20.6km/h 15.4mph /  24.8km/h 98% 0.03in /  0.8mm
10:12 48.9 °F /  9.4 °C 48.2 °F /  9.0 °C 29.7in /  1007.0hPa WSW 6.9mph /  11.1km/h 15.4mph /  24.8km/h 98% 0.04in /  1.0mm
10:17 48.9 °F /  9.4 °C 48.2 °F /  9.0 °C 29.7in /  1007.0hPa West 18.6mph /  29.9km/h 18.6mph /  29.9km/h 98% 0.05in /  1.3mm
10:22 48.6 °F /  9.2 °C 48.2 °F /  9.0 °C 29.7in /  1007.0hPa WSW 22.6mph /  36.4km/h 27.1mph /  43.6km/h 98% 0.06in /  1.5mm
10:27 48.6 °F /  9.2 °C 48.2 °F /  9.0 °C 29.7in /  1007.0hPa West 15.4mph /  24.8km/h 27.1mph /  43.6km/h 98% 0.05in /  1.3mm
10:32 48.6 °F /  9.2 °C 48.2 °F /  9.0 °C 29.7in /  1007.0hPa WSW 15.4mph /  24.8km/h 20.8mph /  33.5km/h 98% 0.05in /  1.3mm
10:37 48.6 °F /  9.2 °C 48.2 °F /  9.0 °C 29.7in /  1007.0hPa WSW 23mph /  37.0km/h 23mph /  37.0km/h 98% 0.05in /  1.3mm
10:42 48.6 °F /  9.2 °C 48.2 °F /  9.0 °C 29.7in /  1007.0hPa WSW 19.9mph /  32.0km/h 23mph /  37.0km/h 98% 0.05in /  1.3mm
10:47 48.6 °F /  9.2 °C 48.2 °F /  9.0 °C 29.7in /  1007.0hPa WSW 13.6mph /  21.9km/h 23mph /  37.0km/h 98% 0.03in /  0.8mm
10:52 48.7 °F /  9.3 °C 48.2 °F /  9.0 °C 29.7in /  1007.0hPa WSW 17.4mph /  28.0km/h 19.9mph /  32.0km/h 98% 0.03in /  0.8mm
10:57 48.7 °F /  9.3 °C 48.2 °F /  9.0 °C 29.7in /  1007.0hPa WSW 12.8mph /  20.6km/h 22.1mph /  35.6km/h 98% 0.03in /  0.8mm
11:02 48.7 °F /  9.3 °C 48.2 °F /  9.0 °C 29.7in /  1007.0hPa WSW 13mph /  20.9km/h 22.1mph /  35.6km/h 98% 0.03in /  0.8mm
11:07 48.7 °F /  9.3 °C 48.2 °F /  9.0 °C 29.7in /  1007.0hPa WSW 19.5mph /  31.4km/h 19.9mph /  32.0km/h 98% 0.03in /  0.8mm
11:12 48.7 °F /  9.3 °C 48.2 °F /  9.0 °C 29.7in /  1007.0hPa WSW 15.9mph /  25.6km/h 19.5mph /  31.4km/h 98% 0.03in /  0.8mm
11:17 48.7 °F /  9.3 °C 48.2 °F /  9.0 °C 29.7in /  1007.0hPa SW 17.7mph /  28.5km/h 19.5mph /  31.4km/h 98% 0.02in /  0.5mm
11:22 48.6 °F /  9.2 °C 48.2 °F /  9.0 °C 29.7in /  1007.0hPa WSW 13.9mph /  22.4km/h 25.9mph /  41.7km/h 98% 0.01in /  0.3mm
11:27 48.4 °F /  9.1 °C 48.2 °F /  9.0 °C 29.7in /  1007.0hPa WSW 33.3mph /  53.6km/h 33.3mph /  53.6km/h 98% 0.02in /  0.5mm
11:32 48.2 °F /  9.0 °C 48.2 °F /  9.0 °C 29.7in /  1007.0hPa WSW 33.3mph /  53.6km/h 33.3mph /  53.6km/h 98% 0.04in /  1.0mm
11:37 48 °F /  8.9 °C 48.2 °F /  9.0 °C 29.7in /  1007.0hPa West 23.7mph /  38.1km/h 33.3mph /  53.6km/h 98% 0.04in /  1.0mm
11:42 48 °F /  8.9 °C 48.2 °F /  9.0 °C 29.7in /  1007.0hPa West 23.7mph /  38.1km/h 33.3mph /  53.6km/h 98% 0.05in /  1.3mm
11:47 47.8 °F /  8.8 °C 48.2 °F /  9.0 °C 29.7in /  1007.0hPa West 14.3mph /  23.0km/h 23.7mph /  38.1km/h 98% 0.05in /  1.3mm
11:52 47.8 °F /  8.8 °C 48.2 °F /  9.0 °C 29.7in /  1007.0hPa WSW 15.2mph /  24.5km/h 23.7mph /  38.1km/h 98% 0.06in /  1.5mm
11:57 47.8 °F /  8.8 °C 48.2 °F /  9.0 °C 29.7in /  1007.0hPa West 26.4mph /  42.5km/h 26.4mph /  42.5km/h 98% 0.07in /  1.8mm
12:02 47.8 °F /  8.8 °C 48.2 °F /  9.0 °C 29.7in /  1006.0hPa WSW 23.5mph /  37.8km/h 28.4mph /  45.7km/h 98% 0.09in /  2.3mm
12:07 47.7 °F /  8.7 °C 48.2 °F /  9.0 °C 29.7in /  1006.0hPa WSW 13.4mph /  21.6km/h 28.4mph /  45.7km/h 98% 0.1in /  2.5mm
12:12 47.5 °F /  8.6 °C 48.2 °F /  9.0 °C 29.7in /  1006.0hPa West 16.3mph /  26.2km/h 24.4mph /  39.3km/h 98% 0.09in /  2.3mm
12:17 47.5 °F /  8.6 °C 48.2 °F /  9.0 °C 29.7in /  1006.0hPa WSW 15.9mph /  25.6km/h 21mph /  33.8km/h 98% 0.1in /  2.5mm
12:22 47.5 °F /  8.6 °C 48.2 °F /  9.0 °C 29.7in /  1006.0hPa WSW 19.2mph /  30.9km/h 19.5mph /  31.4km/h 98% 0.11in /  2.8mm
12:27 47.5 °F /  8.6 °C 48.2 °F /  9.0 °C 29.7in /  1006.0hPa WSW 17.7mph /  28.5km/h 21.9mph /  35.2km/h 98% 0.1in /  2.5mm
12:32 47.3 °F /  8.5 °C 48.2 °F /  9.0 °C 29.7in /  1006.0hPa WSW 22.4mph /  36.0km/h 24.4mph /  39.3km/h 98% 0.1in /  2.5mm
12:38 47.3 °F /  8.5 °C 48.2 °F /  9.0 °C 29.7in /  1006.0hPa WSW 22.4mph /  36.0km/h 24.4mph /  39.3km/h 98% 0.1in /  2.5mm
12:43 47.3 °F /  8.5 °C 48.2 °F /  9.0 °C 29.7in /  1006.0hPa WSW 22.4mph /  36.0km/h 22.4mph /  36.0km/h 98% 0.1in /  2.5mm
12:48 46.9 °F /  8.3 °C 48.2 °F /  9.0 °C 29.7in /  1005.0hPa WSW 22.4mph /  36.0km/h 22.4mph /  36.0km/h 98% 0.1in /  2.5mm
12:53 46.9 °F /  8.3 °C 46.4 °F /  8.0 °C 29.7in /  1005.0hPa WSW 22.4mph /  36.0km/h 22.4mph /  36.0km/h 97% 0.09in /  2.3mm
12:58 46.8 °F /  8.2 °C 46.4 °F /  8.0 °C 29.7in /  1005.0hPa WSW 22.4mph /  36.0km/h 22.4mph /  36.0km/h 98% 0.09in /  2.3mm
13:03 46.8 °F /  8.2 °C 46.4 °F /  8.0 °C 29.6in /  1003.9hPa WSW 22.4mph /  36.0km/h 22.4mph /  36.0km/h 98% 0.07in /  1.8mm
13:08 46.8 °F /  8.2 °C 46.4 °F /  8.0 °C 29.6in /  1003.9hPa WSW 22.4mph /  36.0km/h 22.4mph /  36.0km/h 98% 0.06in /  1.5mm
13:13 46.6 °F /  8.1 °C 46.4 °F /  8.0 °C 29.6in /  1003.9hPa WSW 22.4mph /  36.0km/h 22.4mph /  36.0km/h 98% 0.07in /  1.8mm
13:18 46.6 °F /  8.1 °C 46.4 °F /  8.0 °C 29.7in /  1005.0hPa WSW 22.4mph /  36.0km/h 22.4mph /  36.0km/h 98% 0.06in /  1.5mm
13:23 46.6 °F /  8.1 °C 46.4 °F /  8.0 °C 29.7in /  1005.0hPa WSW 22.4mph /  36.0km/h 22.4mph /  36.0km/h 98% 0.05in /  1.3mm
13:28 46.6 °F /  8.1 °C 46.4 °F /  8.0 °C 29.7in /  1005.0hPa WSW 22.4mph /  36.0km/h 22.4mph /  36.0km/h 98% 0.05in /  1.3mm
13:33 46.6 °F /  8.1 °C 46.4 °F /  8.0 °C 29.7in /  1005.0hPa WSW 22.4mph /  36.0km/h 22.4mph /  36.0km/h 98% 0.03in /  0.8mm
13:38 46.6 °F /  8.1 °C 46.4 °F /  8.0 °C 29.7in /  1005.0hPa WSW 22.4mph /  36.0km/h 22.4mph /  36.0km/h 97% 0.03in /  0.8mm
13:43 46.6 °F /  8.1 °C 46.4 °F /  8.0 °C 29.7in /  1005.0hPa WSW 22.4mph /  36.0km/h 22.4mph /  36.0km/h 96% 0.02in /  0.5mm
13:48 46.6 °F /  8.1 °C 46.4 °F /  8.0 °C 29.6in /  1003.9hPa WSW 22.4mph /  36.0km/h 22.4mph /  36.0km/h 96% 0.02in /  0.5mm
13:53 46.6 °F /  8.1 °C 46.4 °F /  8.0 °C 29.6in /  1003.9hPa WSW 22.4mph /  36.0km/h 22.4mph /  36.0km/h 95% 0.02in /  0.5mm
13:58 46.6 °F /  8.1 °C 44.6 °F /  7.0 °C 29.6in /  1003.9hPa WSW 22.4mph /  36.0km/h 22.4mph /  36.0km/h 94% 0.01in /  0.3mm
14:03 46.6 °F /  8.1 °C 44.6 °F /  7.0 °C 29.6in /  1002.9hPa WSW 22.4mph /  36.0km/h 22.4mph /  36.0km/h 94% 0.01in /  0.3mm
14:08 46.6 °F /  8.1 °C 44.6 °F /  7.0 °C 29.6in /  1002.9hPa WSW 22.4mph /  36.0km/h 22.4mph /  36.0km/h 92% 0.01in /  0.3mm
14:13 46.8 °F /  8.2 °C 44.6 °F /  7.0 °C 29.6in /  1002.9hPa WSW 22.4mph /  36.0km/h 22.4mph /  36.0km/h 91% 0in /  0.0mm
14:18 46.9 °F /  8.3 °C 44.6 °F /  7.0 °C 29.6in /  1002.9hPa WSW 22.4mph /  36.0km/h 22.4mph /  36.0km/h 90% 0in /  0.0mm
14:23 46.9 °F /  8.3 °C 44.6 °F /  7.0 °C 29.6in /  1002.9hPa WSW 22.4mph /  36.0km/h 22.4mph /  36.0km/h 90% 0in /  0.0mm
14:26 46.9 °F /  8.3 °C 44.6 °F /  7.0 °C 29.6in /  1002.9hPa WSW 22.4mph /  36.0km/h 22.4mph /  36.0km/h 89% 0in /  0.0mm
14:31 46.9 °F /  8.3 °C 44.6 °F /  7.0 °C 29.6in /  1002.9hPa WSW 10.1mph /  16.3km/h 10.1mph /  16.3km/h 88% 0in /  0.0mm
14:36 46.9 °F /  8.3 °C 44.6 °F /  7.0 °C 29.6in /  1002.9hPa WSW 10.1mph /  16.3km/h 10.1mph /  16.3km/h 87% 0in /  0.0mm
14:41 46.9 °F /  8.3 °C 42.8 °F /  6.0 °C 29.6in /  1002.9hPa WSW 10.1mph /  16.3km/h 10.1mph /  16.3km/h 86% 0in /  0.0mm
14:46 46.9 °F /  8.3 °C 42.8 °F /  6.0 °C 29.6in /  1001.9hPa WSW 10.1mph /  16.3km/h 10.1mph /  16.3km/h 86% 0in /  0.0mm
14:51 47.1 °F /  8.4 °C 42.8 °F /  6.0 °C 29.6in /  1001.9hPa WSW 11.9mph /  19.1km/h 11.9mph /  19.1km/h 86% 0in /  0.0mm
14:57 47.1 °F /  8.4 °C 42.8 °F /  6.0 °C 29.6in /  1001.9hPa WSW 11.9mph /  19.1km/h 11.9mph /  19.1km/h 85% 0in /  0.0mm
15:02 47.3 °F /  8.5 °C 44.6 °F /  7.0 °C 29.6in /  1002.9hPa WSW 11.9mph /  19.1km/h 11.9mph /  19.1km/h 86% 0in /  0.0mm
15:07 47.3 °F /  8.5 °C 44.6 °F /  7.0 °C 29.6in /  1002.9hPa WSW 11.9mph /  19.1km/h 11.9mph /  19.1km/h 86% 0in /  0.0mm
15:12 47.3 °F /  8.5 °C 44.6 °F /  7.0 °C 29.6in /  1002.9hPa WSW 11.9mph /  19.1km/h 11.9mph /  19.1km/h 86% 0in /  0.0mm
15:17 47.7 °F /  8.7 °C 44.6 °F /  7.0 °C 29.6in /  1001.9hPa WSW 11.9mph /  19.1km/h 11.9mph /  19.1km/h 86% 0in /  0.0mm
15:22 47.8 °F /  8.8 °C 44.6 °F /  7.0 °C 29.6in /  1001.9hPa WSW 11.9mph /  19.1km/h 11.9mph /  19.1km/h 86% 0in /  0.0mm
15:27 47.8 °F /  8.8 °C 44.6 °F /  7.0 °C 29.6in /  1001.9hPa WSW 11.9mph /  19.1km/h 11.9mph /  19.1km/h 86% 0in /  0.0mm
15:32 47.8 °F /  8.8 °C 44.6 °F /  7.0 °C 29.6in /  1001.9hPa WSW 11.9mph /  19.1km/h 11.9mph /  19.1km/h 86% 0in /  0.0mm
15:37 47.7 °F /  8.7 °C 44.6 °F /  7.0 °C 29.6in /  1001.9hPa WSW 11.9mph /  19.1km/h 11.9mph /  19.1km/h 87% 0in /  0.0mm
15:42 47.5 °F /  8.6 °C 44.6 °F /  7.0 °C 29.6in /  1001.9hPa WSW 11.9mph /  19.1km/h 11.9mph /  19.1km/h 88% 0in /  0.0mm
15:47 47.1 °F /  8.4 °C 44.6 °F /  7.0 °C 29.6in /  1001.9hPa WSW 11.9mph /  19.1km/h 11.9mph /  19.1km/h 90% 0.01in /  0.3mm
15:52 46.8 °F /  8.2 °C 44.6 °F /  7.0 °C 29.6in /  1001.9hPa WSW 12.1mph /  19.5km/h 15.4mph /  24.8km/h 92% 0.02in /  0.5mm
15:57 46.6 °F /  8.1 °C 44.6 °F /  7.0 °C 29.6in /  1001.9hPa WSW 12.1mph /  19.5km/h 15.4mph /  24.8km/h 94% 0.03in /  0.8mm
16:02 46.6 °F /  8.1 °C 44.6 °F /  7.0 °C 29.6in /  1001.9hPa West 11mph /  17.7km/h 21.9mph /  35.2km/h 94% 0.05in /  1.3mm
16:07 46.4 °F /  8.0 °C 46.4 °F /  8.0 °C 29.6in /  1001.9hPa West 11mph /  17.7km/h 21.9mph /  35.2km/h 95% 0.05in /  1.3mm
16:12 46.2 °F /  7.9 °C 44.6 °F /  7.0 °C 29.6in /  1001.9hPa West 11mph /  17.7km/h 11mph /  17.7km/h 95% 0.05in /  1.3mm
16:17 45.9 °F /  7.7 °C 44.6 °F /  7.0 °C 29.6in /  1001.9hPa West 11mph /  17.7km/h 11mph /  17.7km/h 95% 0.05in /  1.3mm
16:23 45.3 °F /  7.4 °C 44.6 °F /  7.0 °C 29.6in /  1001.9hPa West 11mph /  17.7km/h 11mph /  17.7km/h 95% 0.05in /  1.3mm
16:28 45.1 °F /  7.3 °C 42.8 °F /  6.0 °C 29.6in /  1001.9hPa West 11mph /  17.7km/h 11mph /  17.7km/h 94% 0.05in /  1.3mm
16:33 44.8 °F /  7.1 °C 42.8 °F /  6.0 °C 29.6in /  1001.9hPa West 11mph /  17.7km/h 11mph /  17.7km/h 94% 0.05in /  1.3mm
16:38 44.4 °F /  6.9 °C 42.8 °F /  6.0 °C 29.6in /  1001.9hPa North 2.9mph /  4.7km/h 2.9mph /  4.7km/h 95% 0.05in /  1.3mm
16:43 44.2 °F /  6.8 °C 42.8 °F /  6.0 °C 29.6in /  1001.9hPa North 2.9mph /  4.7km/h 2.9mph /  4.7km/h 95% 0.05in /  1.3mm
16:48 44.2 °F /  6.8 °C 42.8 °F /  6.0 °C 29.6in /  1001.9hPa North 2.9mph /  4.7km/h 2.9mph /  4.7km/h 95% 0.04in /  1.0mm
16:53 44.1 °F /  6.7 °C 42.8 °F /  6.0 °C 29.6in /  1001.9hPa North 2.9mph /  4.7km/h 2.9mph /  4.7km/h 95% 0.03in /  0.8mm
16:58 43.9 °F /  6.6 °C 42.8 °F /  6.0 °C 29.6in /  1001.9hPa North 2.9mph /  4.7km/h 2.9mph /  4.7km/h 95% 0.01in /  0.3mm
17:03 43.7 °F /  6.5 °C 42.8 °F /  6.0 °C 29.6in /  1000.9hPa North 2.9mph /  4.7km/h 2.9mph /  4.7km/h 95% 0in /  0.0mm
17:08 43.5 °F /  6.4 °C 42.8 °F /  6.0 °C 29.6in /  1000.9hPa North 2.9mph /  4.7km/h 2.9mph /  4.7km/h 96% 0in /  0.0mm
17:13 43.5 °F /  6.4 °C 42.8 °F /  6.0 °C 29.6in /  1000.9hPa North 2.9mph /  4.7km/h 2.9mph /  4.7km/h 96% 0in /  0.0mm
17:18 43.5 °F /  6.4 °C 42.8 °F /  6.0 °C 29.6in /  1000.9hPa North 2.9mph /  4.7km/h 2.9mph /  4.7km/h 96% 0in /  0.0mm
17:23 43.3 °F /  6.3 °C 42.8 °F /  6.0 °C 29.6in /  1000.9hPa North 2.9mph /  4.7km/h 2.9mph /  4.7km/h 96% 0in /  0.0mm
17:28 43.2 °F /  6.2 °C 42.8 °F /  6.0 °C 29.6in /  1000.9hPa North 2.9mph /  4.7km/h 2.9mph /  4.7km/h 97% 0in /  0.0mm
17:33 43 °F /  6.1 °C 42.8 °F /  6.0 °C 29.6in /  1000.9hPa SW 2.7mph /  4.3km/h 5.8mph /  9.3km/h 97% 0in /  0.0mm
17:38 42.6 °F /  5.9 °C 42.8 °F /  6.0 °C 29.6in /  1000.9hPa WSW 3.8mph /  6.1km/h 5.8mph /  9.3km/h 97% 0in /  0.0mm
17:43 42.6 °F /  5.9 °C 42.8 °F /  6.0 °C 29.6in /  1000.9hPa WSW 5.4mph /  8.7km/h 7.2mph /  11.6km/h 97% 0in /  0.0mm
17:48 42.4 °F /  5.8 °C 42.8 °F /  6.0 °C 29.6in /  1001.9hPa Calm   7.2mph /  11.6km/h 97% 0in /  0.0mm
17:53 42.4 °F /  5.8 °C 42.8 °F /  6.0 °C 29.6in /  1001.9hPa Calm   6.3mph /  10.1km/h 98% 0in /  0.0mm
17:55 42.4 °F /  5.8 °C 42.8 °F /  6.0 °C 29.6in /  1001.9hPa WSW 7.2mph /  11.6km/h 7.2mph /  11.6km/h 98% 0in /  0.0mm
18:00 42.4 °F /  5.8 °C 42.8 °F /  6.0 °C 29.6in /  1000.9hPa WSW 6mph /  9.7km/h 8.7mph /  14.0km/h 98% 0in /  0.0mm
18:05 42.4 °F /  5.8 °C 42.8 °F /  6.0 °C 29.6in /  1000.9hPa WSW 6.7mph /  10.8km/h 8.7mph /  14.0km/h 98% 0in /  0.0mm
18:10 42.4 °F /  5.8 °C 42.8 °F /  6.0 °C 29.6in /  1000.9hPa WSW 7.4mph /  11.9km/h 8.1mph /  13.0km/h 98% 0in /  0.0mm
18:15 42.4 °F /  5.8 °C 42.8 °F /  6.0 °C 29.6in /  1000.9hPa WSW 6.5mph /  10.5km/h 8.5mph /  13.7km/h 98% 0in /  0.0mm
18:20 42.4 °F /  5.8 °C 42.8 °F /  6.0 °C 29.6in /  1000.9hPa WSW 6.3mph /  10.1km/h 9.8mph /  15.8km/h 98% 0in /  0.0mm
18:25 42.4 °F /  5.8 °C 42.8 °F /  6.0 °C 29.6in /  1000.9hPa WSW 8.7mph /  14.0km/h 9.8mph /  15.8km/h 98% 0in /  0.0mm
18:30 42.6 °F /  5.9 °C 42.8 °F /  6.0 °C 29.6in /  1000.9hPa WSW 7.2mph /  11.6km/h 8.7mph /  14.0km/h 98% 0in /  0.0mm
18:35 42.8 °F /  6.0 °C 42.8 °F /  6.0 °C 29.6in /  1000.9hPa SW 7.4mph /  11.9km/h 9.8mph /  15.8km/h 98% 0in /  0.0mm
18:40 42.8 °F /  6.0 °C 42.8 °F /  6.0 °C 29.6in /  1000.9hPa West 10.3mph /  16.6km/h 13mph /  20.9km/h 98% 0in /  0.0mm
18:45 43.2 °F /  6.2 °C 42.8 °F /  6.0 °C 29.6in /  1001.9hPa West 10.1mph /  16.3km/h 14.5mph /  23.3km/h 98% 0in /  0.0mm
18:50 43.2 °F /  6.2 °C 42.8 °F /  6.0 °C 29.6in /  1001.9hPa West 10.7mph /  17.2km/h 14.5mph /  23.3km/h 98% 0in /  0.0mm
18:55 43.3 °F /  6.3 °C 42.8 °F /  6.0 °C 29.6in /  1001.9hPa West 8.7mph /  14.0km/h 17.2mph /  27.7km/h 96% 0in /  0.0mm
19:00 43.3 °F /  6.3 °C 41 °F /  5.0 °C 29.6in /  1001.9hPa West 13mph /  20.9km/h 17.2mph /  27.7km/h 92% 0in /  0.0mm
19:05 43.2 °F /  6.2 °C 41 °F /  5.0 °C 29.6in /  1001.9hPa West 9.8mph /  15.8km/h 15.9mph /  25.6km/h 91% 0in /  0.0mm
19:10 43.2 °F /  6.2 °C 41 °F /  5.0 °C 29.6in /  1001.9hPa West 10.7mph /  17.2km/h 15.9mph /  25.6km/h 88% 0in /  0.0mm
19:15 43 °F /  6.1 °C 39.2 °F /  4.0 °C 29.6in /  1000.9hPa West 10.3mph /  16.6km/h 15.4mph /  24.8km/h 86% 0in /  0.0mm
19:20 43 °F /  6.1 °C 39.2 °F /  4.0 °C 29.6in /  1000.9hPa West 7.6mph /  12.2km/h 12.5mph /  20.1km/h 85% 0in /  0.0mm
19:25 42.6 °F /  5.9 °C 39.2 °F /  4.0 °C 29.6in /  1000.9hPa West 8.1mph /  13.0km/h 12.5mph /  20.1km/h 85% 0in /  0.0mm
19:30 42.4 °F /  5.8 °C 39.2 °F /  4.0 °C 29.6in /  1001.9hPa West 7.4mph /  11.9km/h 12.5mph /  20.1km/h 84% 0in /  0.0mm
19:35 42.4 °F /  5.8 °C 37.4 °F /  3.0 °C 29.6in /  1001.9hPa West 5.8mph /  9.3km/h 12.5mph /  20.1km/h 82% 0in /  0.0mm
19:40 42.4 °F /  5.8 °C 37.4 °F /  3.0 °C 29.6in /  1001.9hPa West 7.8mph /  12.6km/h 12.5mph /  20.1km/h 82% 0in /  0.0mm
19:45 42.4 °F /  5.8 °C 37.4 °F /  3.0 °C 29.6in /  1001.9hPa West 7.8mph /  12.6km/h 12.5mph /  20.1km/h 82% 0in /  0.0mm
19:50 42.3 °F /  5.7 °C 37.4 °F /  3.0 °C 29.6in /  1001.9hPa West 5.4mph /  8.7km/h 10.5mph /  16.9km/h 82% 0in /  0.0mm
19:56 42.3 °F /  5.7 °C 37.4 °F /  3.0 °C 29.6in /  1001.9hPa West 8.5mph /  13.7km/h 11mph /  17.7km/h 82% 0in /  0.0mm
20:01 42.1 °F /  5.6 °C 37.4 °F /  3.0 °C 29.6in /  1001.9hPa West 3.6mph /  5.8km/h 11mph /  17.7km/h 82% 0in /  0.0mm
20:06 41.7 °F /  5.4 °C 37.4 °F /  3.0 °C 29.6in /  1001.9hPa West 0.9mph /  1.4km/h 10.7mph /  17.2km/h 83% 0in /  0.0mm
20:11 41.4 °F /  5.2 °C 37.4 °F /  3.0 °C 29.6in /  1001.9hPa Calm   6.5mph /  10.5km/h 83% 0in /  0.0mm
20:16 41.2 °F /  5.1 °C 37.4 °F /  3.0 °C 29.6in /  1001.9hPa WSW 3.6mph /  5.8km/h 5.4mph /  8.7km/h 83% 0in /  0.0mm
20:21 41.2 °F /  5.1 °C 37.4 °F /  3.0 °C 29.6in /  1001.9hPa West 3.6mph /  5.8km/h 7.8mph /  12.6km/h 82% 0in /  0.0mm
20:26 41 °F /  5.0 °C 37.4 °F /  3.0 °C 29.6in /  1001.9hPa WSW 3.6mph /  5.8km/h 7.8mph /  12.6km/h 82% 0in /  0.0mm
20:31 40.8 °F /  4.9 °C 35.6 °F /  2.0 °C 29.6in /  1001.9hPa West 5.4mph /  8.7km/h 7.6mph /  12.2km/h 82% 0in /  0.0mm
20:36 40.5 °F /  4.7 °C 35.6 °F /  2.0 °C 29.6in /  1001.9hPa West 5.6mph /  9.0km/h 6.5mph /  10.5km/h 81% 0in /  0.0mm
20:41 39.9 °F /  4.4 °C 33.8 °F /  1.0 °C 29.6in /  1001.9hPa Calm   6.5mph /  10.5km/h 81% 0in /  0.0mm
20:46 39.6 °F /  4.2 °C 33.8 °F /  1.0 °C 29.6in /  1001.9hPa Calm   4.9mph /  7.9km/h 81% 0in /  0.0mm
20:51 39 °F /  3.9 °C 33.8 °F /  1.0 °C 29.6in /  1001.9hPa Calm   4mph /  6.4km/h 82% 0in /  0.0mm
20:56 38.7 °F /  3.7 °C 33.8 °F /  1.0 °C 29.6in /  1001.9hPa Calm   4.3mph /  6.9km/h 82% 0in /  0.0mm
21:01 38.3 °F /  3.5 °C 33.8 °F /  1.0 °C 29.6in /  1001.9hPa Calm   4.3mph /  6.9km/h 83% 0in /  0.0mm
21:06 38.1 °F /  3.4 °C 33.8 °F /  1.0 °C 29.6in /  1001.9hPa Calm   4.3mph /  6.9km/h 83% 0in /  0.0mm
21:11 37.8 °F /  3.2 °C 33.8 °F /  1.0 °C 29.6in /  1001.9hPa WSW 4.7mph /  7.6km/h 4.7mph /  7.6km/h 84% 0in /  0.0mm
21:16 37.4 °F /  3.0 °C 33.8 °F /  1.0 °C 29.6in /  1001.9hPa Calm   5.6mph /  9.0km/h 84% 0in /  0.0mm
21:21 37.4 °F /  3.0 °C 33.8 °F /  1.0 °C 29.6in /  1001.9hPa West 4.9mph /  7.9km/h 5.6mph /  9.0km/h 85% 0in /  0.0mm
21:26 37.4 °F /  3.0 °C 33.8 °F /  1.0 °C 29.6in /  1001.9hPa West 4.9mph /  7.9km/h 6.3mph /  10.1km/h 85% 0in /  0.0mm
21:31 37.6 °F /  3.1 °C 33.8 °F /  1.0 °C 29.6in /  1000.9hPa West 4.9mph /  7.9km/h 6.5mph /  10.5km/h 86% 0in /  0.0mm
21:36 37.9 °F /  3.3 °C 35.6 °F /  2.0 °C 29.6in /  1000.9hPa West 0.9mph /  1.4km/h 8.7mph /  14.0km/h 87% 0in /  0.0mm
21:42 37.9 °F /  3.3 °C 35.6 °F /  2.0 °C 29.6in /  1000.9hPa WNW 6mph /  9.7km/h 8.7mph /  14.0km/h 87% 0in /  0.0mm
21:47 38.1 °F /  3.4 °C 35.6 °F /  2.0 °C 29.6in /  1001.9hPa West 4mph /  6.4km/h 8.1mph /  13.0km/h 87% 0in /  0.0mm
21:52 38.1 °F /  3.4 °C 35.6 °F /  2.0 °C 29.6in /  1001.9hPa WNW 2.5mph /  4.0km/h 7.6mph /  12.2km/h 87% 0in /  0.0mm
21:57 37.9 °F /  3.3 °C 33.8 °F /  1.0 °C 29.6in /  1001.9hPa Calm   5.8mph /  9.3km/h 86% 0in /  0.0mm
22:02 37.6 °F /  3.1 °C 33.8 °F /  1.0 °C 29.6in /  1001.9hPa Calm   5.8mph /  9.3km/h 86% 0in /  0.0mm
22:07 37.4 °F /  3.0 °C 33.8 °F /  1.0 °C 29.6in /  1001.9hPa Calm   4.7mph /  7.6km/h 86% 0in /  0.0mm
22:12 37 °F /  2.8 °C 33.8 °F /  1.0 °C 29.6in /  1001.9hPa Calm   4.3mph /  6.9km/h 86% 0in /  0.0mm
22:17 36.9 °F /  2.7 °C 33.8 °F /  1.0 °C 29.6in /  1001.9hPa Calm   3.8mph /  6.1km/h 87% 0in /  0.0mm
22:22 36.7 °F /  2.6 °C 33.8 °F /  1.0 °C 29.6in /  1001.9hPa Calm   2.2mph /  3.5km/h 87% 0in /  0.0mm
22:27 36.3 °F /  2.4 °C 33.8 °F /  1.0 °C 29.6in /  1001.9hPa Calm   1.3mph /  2.1km/h 87% 0in /  0.0mm
22:32 36.1 °F /  2.3 °C 33.8 °F /  1.0 °C 29.6in /  1000.9hPa Calm   1.3mph /  2.1km/h 87% 0in /  0.0mm
22:37 35.6 °F /  2.0 °C 33.8 °F /  1.0 °C 29.6in /  1000.9hPa Calm     87% 0in /  0.0mm
22:42 35.2 °F /  1.8 °C 32 °F /  0.0 °C 29.6in /  1000.9hPa Calm     87% 0in /  0.0mm
22:47 35.2 °F /  1.8 °C 32 °F /  0.0 °C 29.6in /  1001.9hPa Calm     88% 0in /  0.0mm
22:52 35.6 °F /  2.0 °C 33.8 °F /  1.0 °C 29.6in /  1001.9hPa Calm   5.4mph /  8.7km/h 89% 0in /  0.0mm
22:57 35.6 °F /  2.0 °C 33.8 °F /  1.0 °C 29.6in /  1001.9hPa Calm   5.4mph /  8.7km/h 89% 0in /  0.0mm
23:02 35.8 °F /  2.1 °C 33.8 °F /  1.0 °C 29.6in /  1001.9hPa WSW 3.8mph /  6.1km/h 5.6mph /  9.0km/h 90% 0in /  0.0mm
23:07 35.8 °F /  2.1 °C 33.8 °F /  1.0 °C 29.6in /  1001.9hPa WSW 6.3mph /  10.1km/h 6.3mph /  10.1km/h 90% 0in /  0.0mm
23:12 36 °F /  2.2 °C 33.8 °F /  1.0 °C 29.6in /  1001.9hPa WSW 4.7mph /  7.6km/h 6.7mph /  10.8km/h 91% 0in /  0.0mm
23:17 36.1 °F /  2.3 °C 33.8 °F /  1.0 °C 29.6in /  1000.9hPa WSW 6.3mph /  10.1km/h 6.7mph /  10.8km/h 91% 0in /  0.0mm
23:22 36.1 °F /  2.3 °C 33.8 °F /  1.0 °C 29.6in /  1000.9hPa Calm   6.3mph /  10.1km/h 91% 0in /  0.0mm
23:27 36 °F /  2.2 °C 33.8 °F /  1.0 °C 29.6in /  1000.9hPa Calm   5.4mph /  8.7km/h 91% 0in /  0.0mm
23:32 35.8 °F /  2.1 °C 33.8 °F /  1.0 °C 29.6in /  1000.9hPa Calm     91% 0in /  0.0mm
23:37 35.8 °F /  2.1 °C 33.8 °F /  1.0 °C 29.6in /  1000.9hPa WSW 4.3mph /  6.9km/h 6.3mph /  10.1km/h 91% 0in /  0.0mm
23:42 35.8 °F /  2.1 °C 33.8 °F /  1.0 °C 29.6in /  1000.9hPa Calm   6.3mph /  10.1km/h 91% 0in /  0.0mm
23:47 35.8 °F /  2.1 °C 33.8 °F /  1.0 °C 29.6in /  1000.9hPa Calm   6.3mph /  10.1km/h 92% 0in /  0.0mm
23:53 36 °F /  2.2 °C 33.8 °F /  1.0 °C 29.6in /  1000.9hPa West 4.9mph /  7.9km/h 6.3mph /  10.1km/h 92% 0in /  0.0mm
23:58 36 °F /  2.2 °C 33.8 °F /  1.0 °C 29.6in /  1000.9hPa West 3.1mph /  5.0km/h 5.4mph /  8.7km/h 92% 0in /  0.0mm
Données Historique de Météo Turbie

Mise a jour : 24/05/2018 23:24:23
Généré par Cumulus 1.9.4 (1099)